createdAt,value
2023-12-05T00:00:59.310Z,6.60
2023-12-05T00:06:02.552Z,8.40
2023-12-05T00:11:09.238Z,9.20
2023-12-05T00:16:12.524Z,6.93
2023-12-05T00:21:15.687Z,8.00
2023-12-05T00:26:18.968Z,6.43
2023-12-05T00:31:22.274Z,10.17
2023-12-05T00:36:25.524Z,7.82
2023-12-05T00:41:28.669Z,7.80
2023-12-05T00:46:31.845Z,6.35
2023-12-05T00:51:34.937Z,7.60
2023-12-05T00:56:38.344Z,8.10
2023-12-05T01:01:41.559Z,8.48
2023-12-05T01:06:45.127Z,8.00
2023-12-05T01:11:48.264Z,8.75
2023-12-05T01:16:51.715Z,10.90
2023-12-05T01:21:54.845Z,9.00
2023-12-05T01:26:58.106Z,7.93
2023-12-05T01:32:01.314Z,10.13
2023-12-05T01:37:04.444Z,9.15
2023-12-05T01:42:08.027Z,7.18
2023-12-05T01:47:11.869Z,6.13
2023-12-05T01:52:15.390Z,6.13
2023-12-05T01:57:18.931Z,9.07
2023-12-05T02:02:22.421Z,7.25
2023-12-05T02:07:26.525Z,5.72
2023-12-05T02:12:29.720Z,8.00
2023-12-05T02:17:51.510Z,7.55
2023-12-05T02:23:17.076Z,8.00
2023-12-05T02:28:20.819Z,6.63
2023-12-05T02:33:24.085Z,8.57
2023-12-05T02:38:31.536Z,8.53
2023-12-05T02:43:39.786Z,7.63
2023-12-05T02:48:43.338Z,7.93
2023-12-05T02:53:46.487Z,7.80
2023-12-05T02:58:49.628Z,7.70
2023-12-05T03:03:52.759Z,7.50
2023-12-05T03:08:56.767Z,8.02
2023-12-05T03:14:01.535Z,8.60
2023-12-05T03:19:05.368Z,9.63
2023-12-05T03:24:09.150Z,7.22
2023-12-05T03:29:12.230Z,8.07
2023-12-05T03:34:15.425Z,8.65
2023-12-05T03:39:18.629Z,8.63
2023-12-05T03:44:21.756Z,8.82
2023-12-05T03:49:25.397Z,8.73
2023-12-05T03:54:28.690Z,8.20
2023-12-05T03:59:31.807Z,9.27
2023-12-05T04:04:35.179Z,7.50
2023-12-05T04:09:38.552Z,5.80
2023-12-05T04:14:41.841Z,6.38
2023-12-05T04:19:44.878Z,5.73
2023-12-05T04:24:47.931Z,8.02
2023-12-05T04:29:50.989Z,6.20
2023-12-05T04:34:54.107Z,7.07
2023-12-05T04:39:57.253Z,7.15
2023-12-05T04:45:00.625Z,6.37
2023-12-05T04:50:04.232Z,6.85
2023-12-05T04:55:07.548Z,5.53
2023-12-05T05:00:14.535Z,8.20
2023-12-05T05:05:17.840Z,10.00
2023-12-05T05:10:21.740Z,7.53
2023-12-05T05:15:25.042Z,8.85
2023-12-05T05:20:28.213Z,8.70
2023-12-05T05:25:31.903Z,7.32
2023-12-05T05:30:35.111Z,8.00
2023-12-05T05:35:38.509Z,4.77
2023-12-05T05:40:44.529Z,8.23
2023-12-05T05:45:47.738Z,6.00
2023-12-05T05:50:51.740Z,4.60
2023-12-05T05:55:55.326Z,6.78
2023-12-05T06:00:58.462Z,5.57
2023-12-05T06:06:02.061Z,5.47
2023-12-05T06:11:05.685Z,5.23
2023-12-05T06:16:09.447Z,5.07
2023-12-05T06:21:12.574Z,6.10
2023-12-05T06:26:15.982Z,5.77
2023-12-05T06:31:19.806Z,7.13
2023-12-05T06:36:23.081Z,4.50
2023-12-05T06:41:26.227Z,5.57
2023-12-05T06:46:29.374Z,5.85
2023-12-05T06:51:32.848Z,7.90
2023-12-05T06:56:35.892Z,6.72
2023-12-05T07:01:39.121Z,7.63
2023-12-05T07:06:45.120Z,7.00
2023-12-05T07:11:48.663Z,7.13
2023-12-05T07:16:52.105Z,6.83
2023-12-05T07:21:55.422Z,5.30
2023-12-05T07:26:58.622Z,8.37
2023-12-05T07:32:01.770Z,6.30
2023-12-05T07:37:05.089Z,10.38
2023-12-05T07:42:08.241Z,7.73
2023-12-05T07:47:13.411Z,8.88
2023-12-05T07:52:16.618Z,9.90
2023-12-05T07:57:23.774Z,6.47
2023-12-05T08:02:27.286Z,6.65
2023-12-05T08:07:30.668Z,6.37
2023-12-05T08:12:35.171Z,8.50
2023-12-05T08:17:38.436Z,9.03
2023-12-05T08:22:41.750Z,9.88
2023-12-05T08:27:45.011Z,9.50
2023-12-05T08:32:48.295Z,9.83
2023-12-05T08:37:51.580Z,11.85
2023-12-05T08:42:54.935Z,10.40
2023-12-05T08:47:58.348Z,11.02
2023-12-05T08:53:03.138Z,10.23
2023-12-05T08:58:06.430Z,11.43
2023-12-05T09:03:10.287Z,10.85
2023-12-05T09:08:13.837Z,11.07
2023-12-05T09:13:17.750Z,11.60
2023-12-05T09:18:21.698Z,10.90
2023-12-05T09:23:25.130Z,12.30
2023-12-05T09:28:29.962Z,11.73
2023-12-05T09:33:33.570Z,12.70
2023-12-05T09:38:38.344Z,14.10
2023-12-05T09:43:41.778Z,16.02
2023-12-05T09:48:49.083Z,16.90
2023-12-05T09:53:53.063Z,20.30
2023-12-05T09:58:56.455Z,18.43
2023-12-05T10:04:01.169Z,19.52
2023-12-05T10:09:07.732Z,20.45
2023-12-05T10:14:11.179Z,19.40
2023-12-05T10:19:15.760Z,20.88
2023-12-05T10:24:19.568Z,20.23
2023-12-05T10:29:22.827Z,20.10
2023-12-05T10:34:26.286Z,20.55
2023-12-05T10:39:36.965Z,20.47
2023-12-05T10:44:40.729Z,20.15
2023-12-05T10:49:43.910Z,20.53
2023-12-05T10:54:47.711Z,20.23
2023-12-05T10:59:52.079Z,21.10
2023-12-05T11:04:56.253Z,20.03
2023-12-05T11:09:59.536Z,20.10
2023-12-05T11:15:04.308Z,20.17
2023-12-05T11:20:16.146Z,20.17
2023-12-05T11:25:28.612Z,19.35
2023-12-05T11:30:34.998Z,19.20
2023-12-05T11:35:48.957Z,19.75
2023-12-05T11:41:13.514Z,18.23
2023-12-05T11:46:18.942Z,19.15
2023-12-05T11:51:22.167Z,20.65
2023-12-05T11:56:25.870Z,20.30
2023-12-05T12:01:29.264Z,19.95
2023-12-05T12:06:33.488Z,20.53
2023-12-05T12:11:37.184Z,21.35
2023-12-05T12:16:40.972Z,20.25
2023-12-05T12:21:44.621Z,19.57
2023-12-05T12:26:55.056Z,19.30
2023-12-05T12:32:12.685Z,19.27
2023-12-05T12:37:21.032Z,17.58
2023-12-05T12:42:26.143Z,16.50
2023-12-05T12:47:29.350Z,17.43
2023-12-05T12:52:32.528Z,17.73
2023-12-05T12:57:38.784Z,17.70
2023-12-05T13:02:42.105Z,17.45
2023-12-05T13:07:45.638Z,17.23
2023-12-05T13:12:48.875Z,15.17
2023-12-05T13:18:02.926Z,15.90
2023-12-05T13:23:07.390Z,15.27
2023-12-05T13:28:11.597Z,13.73
2023-12-05T13:33:17.362Z,13.90
2023-12-05T13:38:23.675Z,13.17
2023-12-05T13:43:27.018Z,12.18
2023-12-05T13:48:30.480Z,13.53
2023-12-05T13:53:33.944Z,12.65
2023-12-05T13:58:38.864Z,13.63
2023-12-05T14:03:42.384Z,12.60
2023-12-05T14:08:45.782Z,12.20
2023-12-05T14:13:49.215Z,13.50
2023-12-05T14:18:52.660Z,12.43
2023-12-05T14:23:57.241Z,14.55
2023-12-05T14:29:00.637Z,10.93
2023-12-05T14:34:05.429Z,11.85
2023-12-05T14:39:11.223Z,15.03
2023-12-05T14:44:14.919Z,12.95
2023-12-05T14:49:18.695Z,13.45
2023-12-05T14:54:23.131Z,13.30
2023-12-05T14:59:26.452Z,20.60
2023-12-05T15:04:29.431Z,18.80
2023-12-05T15:09:33.688Z,13.63
2023-12-05T15:14:37.075Z,16.05
2023-12-05T15:19:40.023Z,15.00
2023-12-05T15:25:02.809Z,11.98
2023-12-05T15:30:08.842Z,10.63
2023-12-05T15:35:11.763Z,13.75
2023-12-05T15:40:16.482Z,13.45
2023-12-05T15:45:19.731Z,12.03
2023-12-05T15:50:22.782Z,11.60
2023-12-05T15:55:27.498Z,12.20
2023-12-05T16:00:32.722Z,13.95
2023-12-05T16:05:35.763Z,13.25
2023-12-05T16:10:38.809Z,13.87
2023-12-05T16:15:41.788Z,11.23
2023-12-05T16:20:44.814Z,13.02
2023-12-05T16:25:47.654Z,13.18
2023-12-05T16:30:50.639Z,13.18
2023-12-05T16:35:53.491Z,12.30
2023-12-05T16:40:57.973Z,14.45
2023-12-05T16:46:00.950Z,12.98
2023-12-05T16:51:04.739Z,13.13
2023-12-05T16:56:08.481Z,14.55
2023-12-05T17:01:13.491Z,11.67
2023-12-05T17:06:16.531Z,12.15
2023-12-05T17:11:19.553Z,10.07
2023-12-05T17:16:22.592Z,12.93
2023-12-05T17:21:25.571Z,13.85
2023-12-05T17:26:28.866Z,9.70
2023-12-05T17:31:32.644Z,14.95
2023-12-05T17:36:36.050Z,12.33
2023-12-05T17:41:38.835Z,14.68
2023-12-05T17:46:44.194Z,10.70
2023-12-05T17:51:47.439Z,14.10
2023-12-05T17:56:50.715Z,14.25
2023-12-05T18:01:53.763Z,13.23
2023-12-05T18:07:49.799Z,13.10
2023-12-05T18:12:20.856Z,14.88
2023-12-05T18:17:24.934Z,12.20
2023-12-05T18:22:27.734Z,13.55
2023-12-05T18:27:30.681Z,14.70
2023-12-05T18:32:34.241Z,14.82
2023-12-05T18:37:37.660Z,13.25
2023-12-05T18:42:43.893Z,11.53
2023-12-05T18:47:48.506Z,13.35
2023-12-05T18:52:54.118Z,12.80
2023-12-05T18:57:57.666Z,11.32
2023-12-05T19:03:00.608Z,13.73
2023-12-05T19:08:06.972Z,11.53
2023-12-05T19:13:10.012Z,17.90
2023-12-05T19:18:13.933Z,12.55
2023-12-05T19:23:16.982Z,13.18
2023-12-05T19:28:23.657Z,12.88
2023-12-05T19:33:26.503Z,12.20
2023-12-05T19:38:29.427Z,12.65
2023-12-05T19:43:32.176Z,7.47
2023-12-05T19:48:35.847Z,14.40
2023-12-05T19:53:39.227Z,12.50
2023-12-05T19:58:42.453Z,13.27
2023-12-05T20:03:45.448Z,16.00
2023-12-05T20:08:48.343Z,14.73
2023-12-05T20:13:51.762Z,12.98
2023-12-05T20:18:54.755Z,13.68
2023-12-05T20:23:58.641Z,15.50
2023-12-05T20:29:01.586Z,18.48
2023-12-05T20:34:04.666Z,15.55
2023-12-05T20:39:07.652Z,17.98
2023-12-05T20:44:10.986Z,18.23
2023-12-05T20:49:13.941Z,18.70
2023-12-05T20:54:16.665Z,13.55
2023-12-05T20:59:19.690Z,16.00
2023-12-05T21:04:22.677Z,14.23
2023-12-05T21:09:26.274Z,15.50
2023-12-05T21:14:29.371Z,15.87
2023-12-05T21:19:32.564Z,14.05
2023-12-05T21:24:36.428Z,14.85
2023-12-05T21:29:40.820Z,19.95
2023-12-05T21:34:43.967Z,18.25
2023-12-05T21:39:47.195Z,17.70
2023-12-05T21:44:50.770Z,18.95
2023-12-05T21:49:53.863Z,19.90
2023-12-05T21:54:56.838Z,18.58
2023-12-05T21:59:59.767Z,22.10
2023-12-05T22:05:02.633Z,19.43
2023-12-05T22:10:06.053Z,20.92
2023-12-05T22:15:09.347Z,21.23
2023-12-05T22:20:12.221Z,19.25
2023-12-05T22:25:15.372Z,15.38
2023-12-05T22:30:18.864Z,17.87
2023-12-05T22:35:21.640Z,6.72
2023-12-05T22:40:24.642Z,17.77
2023-12-05T22:45:27.823Z,13.65
2023-12-05T22:50:30.864Z,18.77
2023-12-05T22:55:40.182Z,18.63
2023-12-05T23:00:43.076Z,15.75
2023-12-05T23:05:46.135Z,16.45
2023-12-05T23:10:54.350Z,16.42
2023-12-05T23:15:58.512Z,14.50
2023-12-05T23:21:01.622Z,15.37
2023-12-05T23:26:05.193Z,17.75
2023-12-05T23:31:08.074Z,20.10
2023-12-05T23:36:13.082Z,12.55
2023-12-05T23:41:16.057Z,18.27
2023-12-05T23:46:19.005Z,17.20
2023-12-05T23:51:22.172Z,20.13
2023-12-05T23:56:25.038Z,19.05
